Time;durP1;ratioP1;P1;durP2;ratioP2;P2;SDS_P1;SDS_P2;PMS_P1;PMS_P2;Temp;Humidity;BMP_temperature;BMP_pressure;BME280_temperature;BME280_humidity;BME280_pressure;Samples;Min_cycle;Max_cycle;Signal;HPM_P1;HPM_P2
2022/01/18 00:01:49;;;;;;;28.80;6.72;;;;;;;-0.96;100.00;100748.91;5099136;28;20040;-74
2022/01/18 00:04:35;;;;;;;30.80;9.48;;;;;;;-0.94;100.00;100738.72;5098937;28;20064;-75
2022/01/18 00:07:20;;;;;;;36.85;9.68;;;;;;;-0.93;100.00;100750.75;5098100;28;20452;-75
2022/01/18 00:10:04;;;;;;;31.40;8.38;;;;;;;-0.91;100.00;100767.13;5097997;28;20453;-74
2022/01/18 00:18:25;;;;;;;41.03;9.05;;;;;;;-0.97;100.00;100756.59;5098632;28;20040;-74
2022/01/18 00:23:57;;;;;;;29.65;6.80;;;;;;;-1.02;100.00;100756.41;5097949;28;20040;-75
2022/01/18 00:26:41;;;;;;;23.35;6.43;;;;;;;-0.97;100.00;100756.59;5098559;28;20039;-74
2022/01/18 00:29:28;;;;;;;20.98;4.75;;;;;;;-0.95;100.00;100766.09;5098397;28;20103;-74
2022/01/18 00:32:24;;;;;;;27.95;7.18;;;;;;;-0.93;100.00;100773.88;5083484;28;20043;-75
2022/01/18 00:35:10;;;;;;;31.98;7.57;;;;;;;-0.87;100.00;100770.66;5097546;28;20036;-74
2022/01/18 00:37:56;;;;;;;17.67;5.10;;;;;;;-0.91;100.00;100766.22;5098367;28;20040;-75
2022/01/18 00:40:41;;;;;;;25.08;6.50;;;;;;;-0.93;100.00;100778.16;5098417;28;20052;-74
2022/01/18 00:43:25;;;;;;;14.55;4.07;;;;;;;-0.97;100.00;100793.47;5083482;28;20052;-75
2022/01/18 00:46:12;;;;;;;18.50;4.80;;;;;;;-0.90;100.00;100791.13;5098194;28;20040;-75
2022/01/18 00:49:00;;;;;;;19.33;5.97;;;;;;;-0.95;100.00;100799.53;5098001;28;20354;-75
2022/01/18 00:51:52;;;;;;;21.75;6.30;;;;;;;-0.97;100.00;100788.34;5097242;28;20043;-75
2022/01/18 00:54:40;;;;;;;16.60;5.25;;;;;;;-0.97;100.00;100790.91;5097853;28;20044;-75
2022/01/18 00:57:25;;;;;;;18.05;3.78;;;;;;;-1.05;100.00;100794.88;5096981;28;20071;-75
2022/01/18 01:00:09;;;;;;;19.52;5.47;;;;;;;-1.04;100.00;100791.50;5097128;28;20041;-75
2022/01/18 01:02:54;;;;;;;20.92;6.10;;;;;;;-1.06;100.00;100800.84;5097968;28;20035;-75
2022/01/18 01:05:38;;;;;;;21.45;6.00;;;;;;;-1.09;100.00;100795.59;5097052;28;20044;-75
2022/01/18 01:08:23;;;;;;;27.63;7.15;;;;;;;-1.04;100.00;100799.22;5097612;28;20089;-75
2022/01/18 01:11:09;;;;;;;11.20;2.78;;;;;;;-1.03;100.00;100812.94;5097609;28;20044;-75
2022/01/18 01:13:58;;;;;;;22.20;4.30;;;;;;;-1.02;100.00;100827.56;5097564;28;20040;-75
2022/01/18 01:17:05;;;;;;;22.25;5.90;;;;;;;-0.95;100.00;100822.69;5096903;28;20044;-75
2022/01/18 01:32:10;;;;;;;23.13;5.00;;;;;;;-0.99;100.00;100831.13;5097442;28;20456;-75
2022/01/18 01:35:36;;;;;;;12.75;3.92;;;;;;;-1.13;100.00;100816.88;5096556;28;20048;-75
2022/01/18 01:44:36;;;;;;;14.30;3.45;;;;;;;-1.03;100.00;100828.38;5096943;28;20039;-75
2022/01/18 01:47:23;;;;;;;14.43;3.95;;;;;;;-1.08;100.00;100822.16;5096884;28;20040;-75
2022/01/18 01:50:17;;;;;;;15.68;3.22;;;;;;;-1.16;100.00;100833.88;5096978;28;20040;-75
2022/01/18 01:53:01;;;;;;;15.32;3.60;;;;;;;-1.07;100.00;100824.81;5096219;28;20365;-74
2022/01/18 01:55:47;;;;;;;11.93;3.05;;;;;;;-1.04;100.00;100830.09;5096810;28;20092;-75
2022/01/18 01:58:32;;;;;;;15.13;3.20;;;;;;;-1.06;100.00;100817.97;5096039;28;20052;-75
2022/01/18 02:01:16;;;;;;;12.73;3.28;;;;;;;-1.03;100.00;100821.53;5081671;28;20441;-75
2022/01/18 02:04:00;;;;;;;17.25;4.68;;;;;;;-1.18;100.00;100811.53;5096675;28;20051;-75
2022/01/18 02:06:45;;;;;;;12.63;5.00;;;;;;;-1.20;100.00;100820.91;5096464;28;20044;-75
2022/01/18 02:09:29;;;;;;;13.75;3.80;;;;;;;-1.21;100.00;100824.28;5095833;28;20111;-75
2022/01/18 02:12:17;;;;;;;15.02;3.42;;;;;;;-1.12;100.00;100830.59;5095746;28;20112;-75
2022/01/18 02:15:11;;;;;;;13.63;2.40;;;;;;;-1.19;100.00;100830.34;5096616;28;20044;-75
2022/01/18 02:24:03;;;;;;;;;;;;;;;-1.16;100.00;100841.59;5096132;28;20043;-75
2022/01/18 02:26:47;;;;;;;15.13;2.92;;;;;;;-1.24;100.00;100843.84;5124523;27;20022;-75
2022/01/18 02:29:32;;;;;;;6.78;2.28;;;;;;;-1.31;100.00;100844.44;5095381;28;20043;-75
2022/01/18 02:32:17;;;;;;;13.75;3.00;;;;;;;-1.23;100.00;100856.78;5096233;28;20036;-75
2022/01/18 02:35:03;;;;;;;19.85;3.33;;;;;;;-1.27;100.00;100864.28;5095572;28;20043;-75
2022/01/18 02:37:53;;;;;;;11.73;3.13;;;;;;;-1.22;100.00;100855.94;5096292;28;20429;-75
2022/01/18 02:40:38;;;;;;;15.82;3.55;;;;;;;-1.25;100.00;100865.25;5096094;28;20043;-75
2022/01/18 02:46:27;;;;;;;12.57;2.25;;;;;;;-1.27;100.00;100872.00;5095233;28;20047;-75
2022/01/18 02:49:11;;;;;;;18.45;3.90;;;;;;;-1.32;100.00;100876.09;5095457;28;20048;-75
2022/01/18 02:51:58;;;;;;;20.15;3.08;;;;;;;-1.33;100.00;100879.47;5095984;28;20422;-75
2022/01/18 02:54:43;;;;;;;13.52;2.97;;;;;;;-1.34;100.00;100870.88;5095312;28;20426;-75
2022/01/18 02:57:28;;;;;;;11.25;2.72;;;;;;;-1.38;100.00;100868.16;5095011;28;20060;-75
2022/01/18 03:00:45;;;;;;;10.65;2.70;;;;;;;-1.32;100.00;100873.53;5123881;28;20426;-75
2022/01/18 03:03:21;;;;;;;14.05;2.75;;;;;;;-1.45;100.00;100865.31;5095829;28;20032;-75
2022/01/18 03:06:07;;;;;;;16.67;3.10;;;;;;;-1.41;100.00;100881.75;5095982;28;20087;-75
2022/01/18 03:08:51;;;;;;;17.88;4.50;;;;;;;-1.46;100.00;100870.41;5095947;28;20040;-75
2022/01/18 03:11:35;;;;;;;11.70;2.33;;;;;;;-1.38;100.00;100875.84;5095757;28;20032;-75
2022/01/18 03:14:19;;;;;;;20.20;4.68;;;;;;;-1.38;100.00;100881.88;5095037;28;20048;-75
2022/01/18 03:17:04;;;;;;;12.55;3.00;;;;;;;-1.33;100.00;100885.50;5095160;28;20119;-75
2022/01/18 03:19:48;;;;;;;16.67;3.03;;;;;;;-1.28;100.00;100885.69;5066636;28;20052;-75
2022/01/18 03:22:33;;;;;;;19.60;3.10;;;;;;;-1.29;100.00;100892.53;5095734;28;20040;-75
2022/01/18 03:28:18;;;;;;;19.48;2.63;;;;;;;-1.13;100.00;100893.13;5096691;28;20137;-75
2022/01/18 03:31:03;;;;;;;14.40;3.88;;;;;;;-1.14;100.00;100906.78;5098847;28;20385;-75
2022/01/18 03:33:47;;;;;;;13.35;2.67;;;;;;;-1.21;100.00;100900.53;5098924;28;20040;-75
2022/01/18 03:36:31;;;;;;;15.48;3.20;;;;;;;-1.02;100.00;100917.56;5098748;28;20044;-75
2022/01/18 03:39:16;;;;;;;13.52;2.70;;;;;;;-1.00;100.00;100908.22;5098725;28;20040;-75
2022/01/18 03:45:09;;;;;;;8.38;2.22;;;;;;;-0.92;100.00;100926.53;5099328;28;20058;-75
2022/01/18 03:47:56;;;;;;;11.93;2.13;;;;;;;-0.94;100.00;100921.34;5099130;28;20044;-75
2022/01/18 03:50:40;;;;;;;14.57;2.63;;;;;;;-1.04;100.00;100922.66;5099413;28;20051;-75
2022/01/18 03:53:25;;;;;;;12.63;2.78;;;;;;;-1.15;100.00;100936.78;5098443;28;20036;-75
2022/01/18 03:56:10;;;;;;;11.32;3.00;;;;;;;-1.13;100.00;100947.13;5098285;28;20136;-75
2022/01/18 03:58:55;;;;;;;11.88;2.47;;;;;;;-1.06;100.00;100950.00;5099280;28;20040;-75
2022/01/18 04:01:39;;;;;;;13.95;2.78;;;;;;;-0.98;100.00;100947.72;5098967;28;20072;-75
2022/01/18 04:04:24;;;;;;;10.35;2.83;;;;;;;-1.07;100.00;100945.69;5098210;28;20047;-75
2022/01/18 04:07:09;;;;;;;12.80;2.80;;;;;;;-1.02;100.00;100944.16;5112503;28;20345;-75
2022/01/18 04:09:53;;;;;;;11.98;3.15;;;;;;;-1.08;100.00;100948.19;5083881;28;20040;-75
2022/01/18 04:12:39;;;;;;;15.88;2.50;;;;;;;-1.12;100.00;100936.91;5083791;28;20082;-75
2022/01/18 04:15:23;;;;;;;8.07;1.77;;;;;;;-0.99;100.00;100949.41;5097949;28;20044;-75
2022/01/18 04:27:01;;;;;;;13.65;2.47;;;;;;;-1.19;100.00;100953.78;5098456;28;20040;-75
2022/01/18 04:29:45;;;;;;;9.68;3.20;;;;;;;-1.19;100.00;100948.63;5098673;28;20040;-75
2022/01/18 04:32:30;;;;;;;19.50;2.88;;;;;;;-1.24;100.00;100956.97;5126511;27;20044;-75
2022/01/18 04:35:15;;;;;;;9.25;2.15;;;;;;;-1.22;100.00;100961.34;5097299;28;20056;-75
2022/01/18 04:38:00;;;;;;;17.75;4.38;;;;;;;-1.34;100.00;100952.25;5097755;28;20036;-75
2022/01/18 04:40:46;;;;;;;19.38;5.20;;;;;;;-1.27;100.00;100969.69;5097175;28;20040;-75
2022/01/18 04:49:37;;;;;;;16.40;2.92;;;;;;;-1.29;100.00;100966.19;5098089;28;20097;-75
2022/01/18 04:52:21;;;;;;;21.63;4.47;;;;;;;-1.31;100.00;100960.09;5098094;28;20063;-75
2022/01/18 04:55:06;;;;;;;16.40;3.90;;;;;;;-1.42;100.00;100955.41;5097278;28;20036;-75
2022/01/18 04:57:52;;;;;;;15.77;3.47;;;;;;;-1.31;100.00;100971.25;5097785;28;20051;-75
2022/01/18 05:00:37;;;;;;;20.40;3.45;;;;;;;-1.32;100.00;100971.22;5097740;28;20047;-75
2022/01/18 05:03:21;;;;;;;52.15;16.48;;;;;;;-1.32;100.00;100973.78;5097031;28;20465;-75
2022/01/18 05:06:12;;;;;;;54.90;14.52;;;;;;;-1.39;100.00;100966.63;5097687;28;20032;-75
2022/01/18 05:09:00;;;;;;;100.82;30.80;;;;;;;-1.33;100.00;100972.91;5082761;28;20040;-75
2022/01/18 05:11:52;;;;;;;55.85;25.23;;;;;;;-1.48;100.00;100962.84;5097553;28;20035;-75
2022/01/18 05:14:37;;;;;;;44.85;22.83;;;;;;;-1.39;100.00;100987.19;5096765;28;20051;-75
2022/01/18 05:17:45;;;;;;;75.78;33.47;;;;;;;-1.46;100.00;100971.53;5097394;28;20047;-75
2022/01/18 05:23:36;;;;;;;51.20;23.98;;;;;;;-1.42;100.00;100983.69;5096611;28;20053;-76
2022/01/18 05:26:22;;;;;;;61.40;23.92;;;;;;;-1.44;100.00;100987.00;5097195;28;20096;-75
2022/01/18 05:29:06;;;;;;;58.65;20.40;;;;;;;-1.42;100.00;100981.09;5082391;28;20050;-75
2022/01/18 05:31:51;;;;;;;84.07;23.13;;;;;;;-1.44;100.00;100985.28;5082279;28;20405;-75
2022/01/18 05:34:36;;;;;;;169.93;47.30;;;;;;;-1.50;100.00;100982.47;5097201;28;20074;-75
2022/01/18 05:37:20;;;;;;;174.15;47.22;;;;;;;-1.39;100.00;100992.34;5097225;28;20040;-75
2022/01/18 05:40:06;;;;;;;116.13;31.77;;;;;;;-1.53;100.00;100986.59;5096380;28;20047;-75
2022/01/18 05:42:50;;;;;;;85.10;21.55;;;;;;;-1.47;100.00;100989.44;5097146;28;20064;-75
2022/01/18 05:45:34;;;;;;;121.32;28.55;;;;;;;-1.56;100.00;100987.38;5096970;28;20363;-75
2022/01/18 05:48:19;;;;;;;139.68;34.15;;;;;;;-1.49;100.00;100985.94;5096898;28;20455;-75
2022/01/18 05:51:03;;;;;;;110.30;28.85;;;;;;;-1.67;100.00;100998.88;5096200;28;20449;-75
2022/01/18 05:53:48;;;;;;;117.20;26.48;;;;;;;-1.62;100.00;100991.38;5096311;28;20114;-75
2022/01/18 05:56:33;;;;;;;170.05;40.28;;;;;;;-1.50;100.00;100987.59;5095883;28;20331;-75
2022/01/18 05:59:23;;;;;;;150.43;39.08;;;;;;;-1.60;100.00;101007.72;5096013;28;20123;-75
2022/01/18 06:02:16;;;;;;;147.43;34.97;;;;;;;-1.52;100.00;101001.22;5081756;28;20366;-75
2022/01/18 06:08:04;;;;;;;93.72;21.17;;;;;;;-1.53;100.00;101007.16;5095739;28;20048;-79
2022/01/18 06:10:49;;;;;;;63.78;15.25;;;;;;;-1.38;100.00;101010.38;5095101;28;20410;-76
2022/01/18 06:13:34;;;;;;;123.20;29.30;;;;;;;-1.50;100.00;100994.44;5093913;28;20036;-76
2022/01/18 06:16:18;;;;;;;73.03;21.67;;;;;;;-1.22;100.00;101022.19;5105965;28;20039;-76
2022/01/18 06:19:03;;;;;;;70.32;18.85;;;;;;;-1.32;100.00;101012.34;5114303;28;20389;-76
2022/01/18 06:21:48;;;;;;;57.50;16.73;;;;;;;-1.19;100.00;101012.03;5115856;28;20127;-76
2022/01/18 06:24:32;;;;;;;100.25;31.67;;;;;;;-1.20;100.00;101024.03;5115667;28;20426;-76
2022/01/18 06:27:17;;;;;;;51.10;19.20;;;;;;;-1.24;100.00;101014.41;5114229;28;20051;-76
2022/01/18 06:30:05;;;;;;;86.93;30.73;;;;;;;-1.13;100.00;101032.00;5099646;28;20066;-76
2022/01/18 06:32:50;;;;;;;99.18;35.45;;;;;;;-1.18;100.00;101026.63;5115432;28;20058;-76
2022/01/18 06:35:34;;;;;;;35.08;11.52;;;;;;;-1.28;100.00;101027.06;5115507;28;20062;-76
2022/01/18 06:38:18;;;;;;;33.72;11.95;;;;;;;-1.25;100.00;101027.22;5114903;28;20604;-76
2022/01/18 06:41:04;;;;;;;62.85;21.70;;;;;;;-1.25;100.00;101035.78;5115833;28;20036;-77
2022/01/18 06:43:48;;;;;;;47.13;11.73;;;;;;;-1.13;100.00;101038.00;5115695;28;20052;-76
2022/01/18 06:46:33;;;;;;;63.75;21.63;;;;;;;-1.05;100.00;101051.19;5114369;28;20042;-76
2022/01/18 06:49:17;;;;;;;23.75;5.80;;;;;;;-1.07;100.00;101061.41;5115000;28;20039;-76
2022/01/18 06:52:02;;;;;;;79.90;23.73;;;;;;;-1.03;100.00;101053.00;5115484;28;20330;-77
2022/01/18 06:54:47;;;;;;;35.90;13.65;;;;;;;-0.95;100.00;101066.16;5115951;28;20051;-76
2022/01/18 06:57:31;;;;;;;31.73;11.82;;;;;;;-0.99;100.00;101067.72;5100968;28;20332;-76
2022/01/18 07:00:16;;;;;;;59.00;19.83;;;;;;;-0.97;100.00;101073.84;5116124;28;20031;-76
2022/01/18 07:03:00;;;;;;;26.48;6.65;;;;;;;-0.79;100.00;101083.13;5118469;28;20039;-76
2022/01/18 07:05:45;;;;;;;96.90;30.13;;;;;;;-0.74;100.00;101087.66;5120121;28;20069;-76
2022/01/18 07:08:30;;;;;;;27.98;8.85;;;;;;;-0.64;100.00;101080.31;5134306;27;20067;-77
2022/01/18 07:11:16;;;;;;;95.93;36.78;;;;;;;-0.67;100.00;101082.75;5134116;27;20047;-76
2022/01/18 07:14:01;;;;;;;402.08;168.23;;;;;;;-0.66;100.00;101092.22;5104786;28;20445;-76
2022/01/18 07:16:45;;;;;;;373.52;175.50;;;;;;;-0.45;100.00;101105.97;5119696;28;20043;-77
2022/01/18 07:19:33;;;;;;;149.77;82.78;;;;;;;-0.36;100.00;101087.41;5119931;28;20160;-76
2022/01/18 07:22:17;;;;;;;91.53;37.78;;;;;;;-0.49;100.00;101097.25;5120343;28;20074;-76
2022/01/18 07:25:10;;;;;;;62.47;26.77;;;;;;;-0.45;100.00;101108.53;5119941;28;20055;-77
2022/01/18 07:27:54;;;;;;;167.63;122.93;;;;;;;-0.21;100.00;101118.03;5120238;28;20410;-77
2022/01/18 07:30:39;;;;;;;373.73;238.77;;;;;;;-0.20;100.00;101120.66;5119074;28;20039;-76
2022/01/18 07:33:23;;;;;;;247.73;73.68;;;;;;;-0.17;100.00;101118.22;5104698;28;20055;-77
2022/01/18 07:36:08;;;;;;;167.13;83.53;;;;;;;-0.26;100.00;101123.00;5120312;28;20046;-77
2022/01/18 07:38:54;;;;;;;618.25;304.92;;;;;;;-0.12;100.00;101127.00;5148130;27;20122;-77
2022/01/18 07:41:39;;;;;;;422.27;177.02;;;;;;;-0.11;100.00;101120.16;5104564;28;20051;-77
2022/01/18 07:44:23;;;;;;;407.60;143.63;;;;;;;-0.10;100.00;101122.81;5118957;28;20059;-77
2022/01/18 07:47:07;;;;;;;196.57;86.00;;;;;;;-0.02;100.00;101123.97;5120000;28;20039;-77
2022/01/18 07:49:51;;;;;;;276.00;59.35;;;;;;;0.10;100.00;101125.25;5119771;28;20425;-77
2022/01/18 07:52:36;;;;;;;145.73;62.30;;;;;;;-0.03;100.00;101134.22;5119413;28;20318;-77
2022/01/18 07:55:20;;;;;;;121.72;31.42;;;;;;;0.07;100.00;101132.88;5119617;28;20111;-77
2022/01/18 07:58:05;;;;;;;178.82;44.78;;;;;;;0.16;100.00;101148.66;5119093;28;20048;-77
2022/01/18 08:00:49;;;;;;;64.68;23.92;;;;;;;0.22;100.00;101151.47;5119761;28;20031;-77
2022/01/18 08:03:34;;;;;;;189.55;46.03;;;;;;;0.24;100.00;101149.84;5119342;28;20039;-77
2022/01/18 08:06:18;;;;;;;110.93;26.98;;;;;;;0.14;100.00;101168.38;5133582;27;20062;-77
2022/01/18 08:09:02;;;;;;;113.80;35.40;;;;;;;0.17;100.00;101169.34;5118377;28;20047;-77
2022/01/18 08:11:47;;;;;;;76.47;19.08;;;;;;;0.09;100.00;101167.28;5118789;28;20035;-77
2022/01/18 08:14:33;;;;;;;78.75;20.65;;;;;;;0.17;100.00;101171.94;5117579;28;20362;-77
2022/01/18 08:17:17;;;;;;;212.00;66.35;;;;;;;0.33;100.00;101157.94;5118536;28;20047;-77
2022/01/18 08:20:02;;;;;;;98.47;32.95;;;;;;;0.43;100.00;101165.19;5118855;28;20044;-77
2022/01/18 08:22:47;;;;;;;158.45;45.65;;;;;;;0.35;100.00;101171.75;5103865;28;20110;-77
2022/01/18 08:25:32;;;;;;;73.75;23.30;;;;;;;0.34;100.00;101187.16;5118913;28;20040;-77
2022/01/18 08:28:16;;;;;;;65.47;21.75;;;;;;;0.37;100.00;101187.28;5147094;27;20433;-78
2022/01/18 08:31:00;;;;;;;126.95;35.17;;;;;;;0.49;100.00;101199.75;5118156;28;20043;-78
2022/01/18 08:33:45;;;;;;;83.15;29.20;;;;;;;0.40;100.00;101200.28;5103822;28;20044;-77
2022/01/18 08:36:29;;;;;;;50.58;20.60;;;;;;;0.39;100.00;101208.81;5117912;28;20047;-77
2022/01/18 08:39:13;;;;;;;128.13;39.00;;;;;;;0.39;100.00;101213.97;5118389;28;20039;-78
2022/01/18 08:41:58;;;;;;;56.20;19.92;;;;;;;0.36;100.00;101204.47;5118303;28;20039;-79
2022/01/18 08:44:43;;;;;;;39.50;16.42;;;;;;;0.47;100.00;101231.50;5147528;27;20130;-78
2022/01/18 08:47:28;;;;;;;117.63;44.40;;;;;;;0.44;100.00;101226.22;5118078;28;20040;-78
2022/01/18 08:50:12;;;;;;;41.20;16.08;;;;;;;0.45;100.00;101230.56;5089880;28;20162;-78
2022/01/18 08:52:56;;;;;;;73.88;28.52;;;;;;;0.55;100.00;101228.34;5117674;28;20052;-78
2022/01/18 08:55:40;;;;;;;39.75;12.95;;;;;;;0.68;100.00;101240.88;5117957;28;20133;-78
2022/01/18 08:58:26;;;;;;;51.00;21.20;;;;;;;0.65;100.00;101251.06;5117575;28;20042;-78
2022/01/18 09:01:10;;;;;;;58.10;22.40;;;;;;;0.66;100.00;101273.47;5118568;28;20035;-78
2022/01/18 09:03:55;;;;;;;158.23;51.08;;;;;;;0.62;100.00;101249.28;5117469;28;20348;-78
2022/01/18 09:06:40;;;;;;;80.07;33.33;;;;;;;0.58;100.00;101268.00;5118171;28;20050;-78
2022/01/18 09:09:26;;;;;;;93.10;31.38;;;;;;;0.69;100.00;101265.88;5117784;28;20035;-78
2022/01/18 09:12:13;;;;;;;30.95;12.52;;;;;;;0.70;100.00;101278.81;5118658;28;20115;-78
2022/01/18 09:15:00;;;;;;;50.17;21.73;;;;;;;0.86;100.00;101281.97;5103105;28;20047;-78
2022/01/18 09:17:45;;;;;;;25.63;9.80;;;;;;;0.83;100.00;101287.00;5117716;28;20401;-78
2022/01/18 09:20:30;;;;;;;45.33;18.98;;;;;;;0.82;100.00;101296.47;5102825;28;20062;-78
2022/01/18 09:23:15;;;;;;;35.30;13.40;;;;;;;0.74;100.00;101295.28;5102786;28;20051;-78
2022/01/18 09:25:59;;;;;;;32.83;12.77;;;;;;;0.66;100.00;101291.53;5116965;28;20040;-78
2022/01/18 09:28:44;;;;;;;155.32;64.60;;;;;;;0.71;100.00;101287.41;5117150;28;20437;-79
2022/01/18 09:31:29;;;;;;;30.73;12.15;;;;;;;0.76;100.00;101295.34;5116968;28;20047;-79
2022/01/18 09:34:13;;;;;;;30.10;14.93;;;;;;;0.80;100.00;101289.47;5117871;28;20337;-80
2022/01/18 09:36:58;;;;;;;62.10;26.35;;;;;;;0.89;100.00;101306.19;5146189;27;20054;-80
2022/01/18 09:39:42;;;;;;;32.13;10.73;;;;;;;0.90;100.00;101297.63;5116797;28;20456;-79
2022/01/18 09:42:33;;;;;;;30.98;11.45;;;;;;;1.03;100.00;101306.69;5118046;28;20058;-79
2022/01/18 09:45:19;;;;;;;29.00;11.45;;;;;;;0.99;100.00;101315.16;5117509;28;20136;-80
2022/01/18 09:48:03;;;;;;;23.95;8.35;;;;;;;1.22;100.00;101323.75;5117614;28;20097;-80
2022/01/18 09:50:48;;;;;;;29.35;11.45;;;;;;;1.36;100.00;101321.66;5117110;28;20031;-81
2022/01/18 09:53:32;;;;;;;29.42;10.48;;;;;;;1.24;100.00;101316.06;5117234;28;20357;-81
2022/01/18 09:56:17;;;;;;;35.97;13.10;;;;;;;1.23;100.00;101333.25;5117059;28;20055;-81
2022/01/18 09:59:03;;;;;;;29.52;11.07;;;;;;;1.19;100.00;101328.78;5117247;28;20047;-80
2022/01/18 10:01:48;;;;;;;27.23;10.65;;;;;;;1.14;100.00;101336.38;5116239;28;20039;-81
2022/01/18 10:04:39;;;;;;;26.52;11.57;;;;;;;1.07;100.00;101339.56;5115420;28;20043;-79
2022/01/18 10:07:35;;;;;;;26.90;9.50;;;;;;;1.14;100.00;101332.94;5114295;28;20036;-79
2022/01/18 10:10:19;;;;;;;20.45;9.30;;;;;;;0.85;100.00;101329.25;5114984;28;20051;-79
2022/01/18 10:13:03;;;;;;;31.77;10.07;;;;;;;0.79;100.00;101339.31;5114080;28;20046;-78
2022/01/18 10:16:06;;;;;;;29.02;10.02;;;;;;;0.88;100.00;101350.00;5114118;28;20039;-79
2022/01/18 10:19:05;;;;;;;17.92;9.13;;;;;;;0.95;100.00;101352.00;5114120;28;20051;-79
2022/01/18 10:21:51;;;;;;;26.42;10.32;;;;;;;0.94;100.00;101350.19;5114646;28;20055;-78
2022/01/18 10:24:36;;;;;;;21.02;10.25;;;;;;;1.00;100.00;101349.56;5102317;28;20138;-79
2022/01/18 10:27:20;;;;;;;27.00;11.15;;;;;;;1.09;100.00;101337.91;5116513;28;20330;-79
2022/01/18 10:30:09;;;;;;;33.47;16.25;;;;;;;1.18;100.00;101345.13;5116784;28;20415;-78
2022/01/18 10:33:14;;;;;;;23.75;9.82;;;;;;;1.10;100.00;101355.13;5101601;28;20421;-78
2022/01/18 10:36:09;;;;;;;32.55;10.65;;;;;;;1.21;100.00;101365.00;5116598;28;20074;-79
2022/01/18 10:39:00;;;;;;;21.13;8.73;;;;;;;1.33;100.00;101373.19;5115312;28;20396;-79
2022/01/18 10:41:44;;;;;;;23.00;9.95;;;;;;;1.11;100.00;101374.09;5115539;28;20120;-80
2022/01/18 10:44:33;;;;;;;112.88;41.97;;;;;;;1.16;100.00;101382.88;5101622;28;20051;-79
2022/01/18 10:47:17;;;;;;;319.98;117.72;;;;;;;1.27;100.00;101381.59;5116090;28;20399;-79
2022/01/18 10:50:11;;;;;;;134.27;47.42;;;;;;;1.15;100.00;101379.44;5116025;28;20047;-79
2022/01/18 10:53:15;;;;;;;134.23;44.38;;;;;;;0.96;100.00;101389.00;5116270;28;20035;-80
2022/01/18 10:56:14;;;;;;;195.45;57.88;;;;;;;1.06;100.00;101385.94;5115228;28;20044;-79
2022/01/18 10:59:00;;;;;;;138.15;37.60;;;;;;;0.84;100.00;101355.84;5115658;28;20052;-79
2022/01/18 11:01:44;;;;;;;111.32;33.50;;;;;;;1.13;100.00;101368.16;5101185;28;20321;-79
2022/01/18 11:04:29;;;;;;;215.73;62.58;;;;;;;1.28;100.00;101375.59;5115706;28;20043;-78
2022/01/18 11:07:15;;;;;;;136.27;43.58;;;;;;;1.30;100.00;101365.31;5101434;28;20100;-79
2022/01/18 11:10:05;;;;;;;77.93;25.38;;;;;;;1.31;100.00;101370.56;5115505;28;20044;-79
2022/01/18 11:13:09;;;;;;;83.32;27.45;;;;;;;1.16;100.00;101376.00;5115416;28;20349;-79
2022/01/18 11:16:03;;;;;;;130.88;40.70;;;;;;;1.22;100.00;101379.66;5115336;28;20395;-79
2022/01/18 11:18:48;;;;;;;189.13;55.25;;;;;;;1.30;100.00;101368.81;5115874;28;20390;-79
2022/01/18 11:21:32;;;;;;;174.10;51.55;;;;;;;1.21;100.00;101370.16;5116512;28;20054;-80
2022/01/18 11:24:19;;;;;;;74.50;22.77;;;;;;;1.32;100.00;101379.19;5115935;28;20353;-80
2022/01/18 11:27:08;;;;;;;180.02;51.30;;;;;;;1.18;100.00;101386.41;5101285;28;20039;-80
2022/01/18 11:29:53;;;;;;;188.88;55.83;;;;;;;1.08;100.00;101397.22;5115717;28;20044;-79
2022/01/18 11:32:38;;;;;;;126.90;40.00;;;;;;;1.18;100.00;101391.56;5116214;28;20043;-80
2022/01/18 11:35:38;;;;;;;141.00;41.88;;;;;;;1.02;100.00;101389.22;5116266;28;20055;-80
2022/01/18 11:38:34;;;;;;;129.05;40.28;;;;;;;1.19;100.00;101405.34;5101033;28;20048;-80
2022/01/18 11:41:26;;;;;;;44.90;15.07;;;;;;;0.99;100.00;101400.31;5115911;28;20039;-80
2022/01/18 11:44:11;;;;;;;27.65;9.40;;;;;;;0.99;100.00;101404.59;5115013;28;20047;-80
2022/01/18 11:46:56;;;;;;;65.22;20.42;;;;;;;0.94;100.00;101401.81;5115740;28;20043;-80
2022/01/18 11:49:45;;;;;;;73.78;24.58;;;;;;;0.95;100.00;101392.41;5117027;28;20051;-79
2022/01/18 11:52:37;;;;;;;78.38;27.35;;;;;;;1.22;100.00;101411.50;5119169;28;20425;-80
2022/01/18 11:55:37;;;;;;;44.15;18.85;;;;;;;1.05;100.00;101405.72;5119097;28;20040;-80
2022/01/18 11:58:23;;;;;;;59.42;22.48;;;;;;;1.06;100.00;101398.84;5118587;28;20055;-80
2022/01/18 12:01:08;;;;;;;55.30;18.88;;;;;;;1.01;100.00;101401.25;5118589;28;20107;-79
2022/01/18 12:03:55;;;;;;;83.32;31.08;;;;;;;1.05;100.00;101387.63;5119100;28;20040;-80
2022/01/18 12:06:45;;;;;;;81.82;30.63;;;;;;;1.27;100.00;101404.84;5118156;28;20044;-80
2022/01/18 12:09:47;;;;;;;32.92;12.75;;;;;;;1.00;100.00;101404.63;5119045;28;20039;-80
2022/01/18 12:12:45;;;;;;;27.75;10.55;;;;;;;1.19;100.00;101406.22;5117226;28;20096;-79
2022/01/18 12:15:32;;;;;;;23.85;8.00;;;;;;;1.25;100.00;101400.44;5116438;28;20044;-80
2022/01/18 12:18:19;;;;;;;18.48;8.27;;;;;;;1.11;100.00;101405.94;5101947;28;20043;-79
2022/01/18 12:21:15;;;;;;;23.33;7.65;;;;;;;1.26;100.00;101397.88;5116314;28;20116;-79
2022/01/18 12:24:20;;;;;;;23.50;9.73;;;;;;;1.16;100.00;101396.66;5117023;28;20036;-80
2022/01/18 12:27:29;;;;;;;25.02;8.50;;;;;;;1.24;100.00;101398.69;5101941;28;20044;-79
2022/01/18 12:30:25;;;;;;;21.33;6.97;;;;;;;1.27;100.00;101391.94;5116120;28;20035;-79
2022/01/18 12:33:18;;;;;;;24.98;8.80;;;;;;;1.19;100.00;101390.75;5116173;28;20418;-80
2022/01/18 12:36:31;;;;;;;20.23;7.25;;;;;;;1.30;100.00;101397.22;5116822;28;20100;-79
2022/01/18 12:39:16;;;;;;;27.45;10.02;;;;;;;1.36;100.00;101397.41;5116113;28;20349;-79
2022/01/18 12:42:03;;;;;;;31.85;10.75;;;;;;;1.31;100.00;101396.38;5118448;28;20047;-80
2022/01/18 12:44:48;;;;;;;35.00;10.60;;;;;;;1.30;100.00;101391.13;5104111;28;20035;-79
2022/01/18 12:47:36;;;;;;;35.58;11.48;;;;;;;1.29;100.00;101387.69;5118262;28;20040;-79
2022/01/18 12:50:30;;;;;;;31.70;11.02;;;;;;;1.32;100.00;101402.41;5117731;28;20373;-80
2022/01/18 12:53:21;;;;;;;123.60;40.15;;;;;;;1.38;100.00;101403.53;5118628;28;20066;-79
2022/01/18 12:56:09;;;;;;;56.95;22.83;;;;;;;1.25;100.00;101400.44;5103242;28;20063;-79
2022/01/18 12:58:53;;;;;;;26.75;11.65;;;;;;;1.28;100.00;101395.38;5102931;28;20039;-80
2022/01/18 13:01:38;;;;;;;32.80;13.57;;;;;;;1.28;100.00;101403.13;5115587;28;20046;-79
2022/01/18 13:04:27;;;;;;;36.58;14.00;;;;;;;1.36;100.00;101407.75;5101339;28;20074;-79
2022/01/18 13:07:12;;;;;;;32.33;15.88;;;;;;;1.40;100.00;101406.19;5116603;28;20054;-79
2022/01/18 13:10:08;;;;;;;37.03;14.05;;;;;;;1.26;100.00;101400.47;5115959;28;20042;-79
2022/01/18 13:12:53;;;;;;;41.50;17.05;;;;;;;1.27;100.00;101410.00;5116535;28;20058;-80
2022/01/18 13:22:54;;;;;;;34.78;14.68;;;;;;;1.07;100.00;101422.13;5115387;28;20043;-81
2022/01/18 13:25:11;;;;;;;26.38;9.68;;;;;;;1.26;100.00;101407.34;5115860;28;20031;-80
2022/01/18 13:28:02;;;;;;;30.33;12.25;;;;;;;1.17;100.00;101407.91;5115012;28;20035;-80
2022/01/18 13:30:47;;;;;;;33.92;11.82;;;;;;;1.26;100.00;101409.91;5117684;28;20044;-80
2022/01/18 13:33:50;;;;;;;24.63;7.97;;;;;;;1.24;100.00;101417.63;5116983;28;20047;-80
2022/01/18 13:36:48;;;;;;;24.27;7.90;;;;;;;1.19;100.00;101420.84;5102524;28;20043;-80
2022/01/18 13:39:40;;;;;;;22.70;8.55;;;;;;;1.15;100.00;101399.19;5116805;28;20050;-80
2022/01/18 13:42:35;;;;;;;25.45;8.32;;;;;;;1.19;100.00;101403.66;5116738;28;20053;-80
2022/01/18 13:45:24;;;;;;;22.23;9.20;;;;;;;1.24;100.00;101401.25;5102300;28;20367;-80
2022/01/18 13:48:10;;;;;;;20.85;8.38;;;;;;;1.22;100.00;101413.22;5116708;28;20050;-80